createdAt,value
2023-05-30T00:02:01.266Z,9.02
2023-05-30T00:05:04.472Z,7.67
2023-05-30T00:08:07.721Z,7.47
2023-05-30T00:11:14.820Z,6.45
2023-05-30T00:14:21.632Z,7.32
2023-05-30T00:17:24.811Z,6.78
2023-05-30T00:20:30.955Z,6.87
2023-05-30T00:23:36.628Z,6.87
2023-05-30T00:26:39.633Z,7.00
2023-05-30T00:29:42.687Z,6.00
2023-05-30T00:32:45.796Z,6.60
2023-05-30T00:35:49.138Z,6.77
2023-05-30T00:38:52.144Z,6.70
2023-05-30T00:41:57.341Z,6.63
2023-05-30T00:45:00.641Z,6.55
2023-05-30T00:48:03.750Z,6.57
2023-05-30T00:51:09.125Z,6.80
2023-05-30T00:54:12.236Z,6.40
2023-05-30T00:57:15.914Z,6.25
2023-05-30T01:00:19.192Z,6.53
2023-05-30T01:03:25.890Z,6.65
2023-05-30T01:06:30.692Z,5.77
2023-05-30T01:09:33.708Z,6.67
2023-05-30T01:12:47.379Z,6.30
2023-05-30T01:15:54.733Z,6.30
2023-05-30T01:19:02.937Z,6.00
2023-05-30T01:22:22.038Z,6.27
2023-05-30T01:25:42.564Z,5.60
2023-05-30T01:28:46.656Z,5.88
2023-05-30T01:31:49.784Z,5.70
2023-05-30T01:34:53.994Z,5.50
2023-05-30T01:37:57.192Z,6.10
2023-05-30T01:41:01.242Z,6.53
2023-05-30T01:44:11.063Z,5.78
2023-05-30T01:47:16.122Z,6.07
2023-05-30T01:50:24.045Z,6.35
2023-05-30T01:53:36.970Z,5.47
2023-05-30T01:56:40.473Z,6.00
2023-05-30T01:59:43.781Z,5.55
2023-05-30T02:02:47.462Z,5.35
2023-05-30T02:05:50.797Z,5.65
2023-05-30T02:08:53.829Z,5.90
2023-05-30T02:11:57.010Z,6.00
2023-05-30T02:15:00.070Z,5.68
2023-05-30T02:18:03.721Z,5.90
2023-05-30T02:21:07.897Z,5.50
2023-05-30T02:24:13.556Z,6.10
2023-05-30T02:27:16.657Z,6.73
2023-05-30T02:30:19.763Z,5.88
2023-05-30T02:33:23.032Z,6.15
2023-05-30T02:36:26.022Z,5.53
2023-05-30T02:39:28.999Z,5.87
2023-05-30T02:42:32.630Z,6.23
2023-05-30T02:45:35.684Z,5.80
2023-05-30T02:48:41.532Z,5.80
2023-05-30T02:51:45.061Z,5.45
2023-05-30T02:54:55.611Z,5.87
2023-05-30T02:58:24.568Z,5.77
2023-05-30T03:01:45.648Z,5.32
2023-05-30T03:04:48.802Z,6.03
2023-05-30T03:07:53.511Z,5.47
2023-05-30T03:10:56.688Z,5.30
2023-05-30T03:13:59.808Z,5.47
2023-05-30T03:17:04.307Z,5.57
2023-05-30T03:20:08.326Z,5.82
2023-05-30T03:23:12.231Z,6.28
2023-05-30T03:26:16.816Z,6.07
2023-05-30T03:29:21.051Z,6.47
2023-05-30T03:32:24.627Z,5.97
2023-05-30T03:35:28.759Z,6.07
2023-05-30T03:38:31.875Z,6.00
2023-05-30T03:41:34.875Z,5.53
2023-05-30T03:44:37.896Z,5.97
2023-05-30T03:47:43.231Z,5.80
2023-05-30T03:50:46.265Z,5.45
2023-05-30T03:53:49.215Z,5.15
2023-05-30T03:56:52.202Z,5.53
2023-05-30T03:59:55.164Z,6.07
2023-05-30T04:03:01.717Z,5.97
2023-05-30T04:06:07.224Z,5.90
2023-05-30T04:09:10.420Z,5.40
2023-05-30T04:12:13.462Z,5.60
2023-05-30T04:15:16.899Z,5.67
2023-05-30T04:18:19.909Z,5.63
2023-05-30T04:21:23.517Z,5.80
2023-05-30T04:24:26.851Z,6.50
2023-05-30T04:27:30.937Z,6.13
2023-05-30T04:30:37.194Z,5.30
2023-05-30T04:33:40.546Z,5.93
2023-05-30T04:36:46.099Z,5.03
2023-05-30T04:39:49.328Z,6.00
2023-05-30T04:42:53.373Z,5.57
2023-05-30T04:46:07.260Z,5.50
2023-05-30T04:49:15.819Z,5.32
2023-05-30T04:52:19.368Z,5.47
2023-05-30T04:55:22.756Z,5.93
2023-05-30T04:58:25.784Z,5.60
2023-05-30T05:01:29.239Z,6.50
2023-05-30T05:04:32.344Z,6.55
2023-05-30T05:07:41.754Z,6.30
2023-05-30T05:10:45.816Z,6.68
2023-05-30T05:13:48.790Z,5.77
2023-05-30T05:16:51.780Z,5.33
2023-05-30T05:19:54.813Z,5.70
2023-05-30T05:22:57.836Z,6.25
2023-05-30T05:26:02.159Z,5.57
2023-05-30T05:29:05.150Z,5.50
2023-05-30T05:32:08.722Z,5.77
2023-05-30T05:35:11.821Z,6.30
2023-05-30T05:38:15.101Z,6.00
2023-05-30T05:41:18.132Z,5.70
2023-05-30T05:44:22.643Z,5.77
2023-05-30T05:47:27.040Z,6.10
2023-05-30T05:50:31.791Z,5.72
2023-05-30T05:53:34.803Z,6.05
2023-05-30T05:56:37.911Z,6.00
2023-05-30T05:59:40.965Z,6.50
2023-05-30T06:02:45.265Z,6.60
2023-05-30T06:05:48.546Z,5.63
2023-05-30T06:08:52.509Z,6.05
2023-05-30T06:11:55.757Z,5.85
2023-05-30T06:14:58.761Z,5.77
2023-05-30T06:18:01.856Z,6.43
2023-05-30T06:21:06.023Z,6.20
2023-05-30T06:24:09.195Z,5.93
2023-05-30T06:27:12.303Z,6.22
2023-05-30T06:30:15.596Z,6.10
2023-05-30T06:33:24.921Z,6.27
2023-05-30T06:36:28.319Z,5.97
2023-05-30T06:39:32.008Z,5.97
2023-05-30T06:42:36.424Z,6.22
2023-05-30T06:45:41.108Z,6.23
2023-05-30T06:48:44.122Z,6.27
2023-05-30T06:51:47.106Z,5.93
2023-05-30T06:54:50.124Z,6.05
2023-05-30T06:57:56.308Z,6.10
2023-05-30T07:00:59.623Z,5.90
2023-05-30T07:04:03.116Z,6.23
2023-05-30T07:07:06.809Z,5.80
2023-05-30T07:10:10.400Z,5.47
2023-05-30T07:13:13.454Z,5.88
2023-05-30T07:16:16.611Z,5.97
2023-05-30T07:19:19.718Z,5.37
2023-05-30T07:22:22.737Z,6.30
2023-05-30T07:25:25.929Z,5.78
2023-05-30T07:28:29.299Z,5.90
2023-05-30T07:31:32.494Z,6.07
2023-05-30T07:34:35.596Z,5.87
2023-05-30T07:37:38.806Z,5.88
2023-05-30T07:40:41.961Z,6.45
2023-05-30T07:43:45.065Z,5.60
2023-05-30T07:46:48.179Z,5.80
2023-05-30T07:49:51.501Z,6.57
2023-05-30T07:52:54.530Z,6.15
2023-05-30T07:55:59.363Z,5.72
2023-05-30T07:59:02.610Z,6.47
2023-05-30T08:02:05.751Z,6.50
2023-05-30T08:05:08.919Z,5.67
2023-05-30T08:08:12.004Z,5.60
2023-05-30T08:11:16.306Z,5.75
2023-05-30T08:14:19.536Z,5.40
2023-05-30T08:17:25.140Z,6.07
2023-05-30T08:20:28.530Z,5.83
2023-05-30T08:23:32.047Z,5.65
2023-05-30T08:26:35.775Z,5.53
2023-05-30T08:29:41.435Z,5.25
2023-05-30T08:32:44.481Z,5.57
2023-05-30T08:35:47.749Z,5.83
2023-05-30T08:39:13.234Z,5.10
2023-05-30T08:42:17.296Z,5.38
2023-05-30T08:45:24.166Z,4.95
2023-05-30T08:48:27.495Z,5.40
2023-05-30T08:51:30.549Z,4.93
2023-05-30T08:55:00.249Z,6.05
2023-05-30T08:58:24.542Z,5.43
2023-05-30T09:01:27.788Z,5.45
2023-05-30T09:04:31.276Z,5.40
2023-05-30T09:07:34.475Z,5.10
2023-05-30T09:10:37.589Z,6.70
2023-05-30T09:13:41.384Z,5.68
2023-05-30T09:16:44.521Z,6.10
2023-05-30T09:19:47.565Z,5.77
2023-05-30T09:22:51.264Z,5.90
2023-05-30T09:25:54.331Z,5.65
2023-05-30T09:28:57.395Z,6.20
2023-05-30T09:32:00.552Z,5.85
2023-05-30T09:35:11.105Z,5.63
2023-05-30T09:38:19.172Z,5.40
2023-05-30T09:41:23.198Z,5.30
2023-05-30T09:44:27.010Z,5.93
2023-05-30T09:47:30.097Z,6.32
2023-05-30T09:50:33.197Z,5.90
2023-05-30T09:53:36.249Z,6.93
2023-05-30T09:56:39.867Z,6.03
2023-05-30T09:59:43.707Z,6.32
2023-05-30T10:02:56.543Z,6.20
2023-05-30T10:06:01.747Z,6.40
2023-05-30T10:09:05.640Z,6.50
2023-05-30T10:12:09.093Z,5.43
2023-05-30T10:15:12.834Z,5.82
2023-05-30T10:18:17.381Z,5.22
2023-05-30T10:21:22.737Z,5.30
2023-05-30T10:24:25.713Z,5.07
2023-05-30T10:27:36.297Z,5.97
2023-05-30T10:30:39.324Z,5.78
2023-05-30T10:33:57.373Z,5.82
2023-05-30T10:37:01.354Z,5.97
2023-05-30T10:40:42.044Z,5.90
2023-05-30T10:44:00.593Z,6.18
2023-05-30T10:47:34.719Z,6.55
2023-05-30T10:50:47.118Z,7.03
2023-05-30T10:53:50.523Z,6.50
2023-05-30T10:56:53.640Z,6.73
2023-05-30T10:59:57.421Z,7.10
2023-05-30T11:03:02.548Z,7.10
2023-05-30T11:06:07.042Z,7.50
2023-05-30T11:09:16.989Z,7.47
2023-05-30T11:12:24.377Z,6.20
2023-05-30T11:15:35.063Z,7.38
2023-05-30T11:18:42.278Z,6.97
2023-05-30T11:22:04.885Z,6.38
2023-05-30T11:25:28.886Z,7.10
2023-05-30T11:28:38.506Z,6.50
2023-05-30T11:31:42.200Z,7.25
2023-05-30T11:34:45.702Z,5.88
2023-05-30T11:37:48.774Z,7.15
2023-05-30T11:40:52.322Z,7.10
2023-05-30T11:43:56.616Z,7.60
2023-05-30T11:47:04.757Z,7.13
2023-05-30T11:50:08.791Z,6.95
2023-05-30T11:53:16.673Z,7.28
2023-05-30T11:56:19.899Z,7.10
2023-05-30T11:59:24.102Z,6.90
2023-05-30T12:02:33.237Z,5.32
2023-05-30T12:05:37.173Z,6.55
2023-05-30T12:08:43.727Z,7.40
2023-05-30T12:12:00.371Z,7.20
2023-05-30T12:15:04.781Z,6.70
2023-05-30T12:18:08.340Z,6.72
2023-05-30T12:21:13.827Z,7.40
2023-05-30T12:24:17.088Z,7.32
2023-05-30T12:27:27.303Z,7.93
2023-05-30T12:30:36.245Z,8.10
2023-05-30T12:33:39.373Z,7.25
2023-05-30T12:36:42.765Z,7.10
2023-05-30T12:39:52.402Z,6.60
2023-05-30T12:42:58.227Z,7.53
2023-05-30T12:46:02.098Z,7.63
2023-05-30T12:49:05.643Z,7.05
2023-05-30T12:52:09.675Z,6.72
2023-05-30T12:55:13.865Z,7.50
2023-05-30T12:58:17.045Z,7.23
2023-05-30T13:01:20.223Z,6.53
2023-05-30T13:04:23.340Z,6.38
2023-05-30T13:07:26.332Z,5.50
2023-05-30T13:10:29.328Z,6.25
2023-05-30T13:13:32.318Z,5.53
2023-05-30T13:16:38.707Z,5.53
2023-05-30T13:19:43.207Z,6.03
2023-05-30T13:22:46.384Z,5.63
2023-05-30T13:25:49.551Z,5.53
2023-05-30T13:28:52.598Z,5.93
2023-05-30T13:31:55.682Z,6.33
2023-05-30T13:34:58.808Z,5.75
2023-05-30T13:38:02.169Z,5.65
2023-05-30T13:41:05.608Z,6.00
2023-05-30T13:44:08.652Z,5.73
2023-05-30T13:47:11.929Z,5.40
2023-05-30T13:50:15.169Z,5.82
2023-05-30T13:53:29.610Z,5.15
2023-05-30T13:56:33.796Z,5.60
2023-05-30T13:59:36.895Z,5.70
2023-05-30T14:02:40.038Z,5.47
2023-05-30T14:05:43.254Z,5.50
2023-05-30T14:08:49.216Z,5.38
2023-05-30T14:11:52.370Z,5.85
2023-05-30T14:14:58.203Z,6.03
2023-05-30T14:18:02.068Z,6.13
2023-05-30T14:21:05.164Z,5.82
2023-05-30T14:24:08.466Z,5.13
2023-05-30T14:27:13.945Z,5.65
2023-05-30T14:30:18.796Z,4.93
2023-05-30T14:33:22.449Z,5.43
2023-05-30T14:36:25.630Z,4.90
2023-05-30T14:39:29.298Z,5.68
2023-05-30T14:42:32.284Z,5.55
2023-05-30T14:45:35.425Z,5.50
2023-05-30T14:48:38.456Z,5.53
2023-05-30T14:51:41.554Z,5.18
2023-05-30T14:54:44.660Z,5.03
2023-05-30T14:57:48.392Z,5.50
2023-05-30T15:00:51.395Z,5.33
2023-05-30T15:03:54.813Z,5.10
2023-05-30T15:06:58.253Z,5.28
2023-05-30T15:10:01.407Z,5.00
2023-05-30T15:13:04.430Z,4.60
2023-05-30T15:16:07.616Z,5.03
2023-05-30T15:19:10.638Z,5.63
2023-05-30T15:22:13.683Z,5.25
2023-05-30T15:25:16.824Z,5.20
2023-05-30T15:28:19.873Z,5.32
2023-05-30T15:31:25.764Z,4.97
2023-05-30T15:34:29.618Z,4.53
2023-05-30T15:37:32.645Z,4.60
2023-05-30T15:40:35.703Z,4.43
2023-05-30T15:43:38.698Z,4.38
2023-05-30T15:46:42.413Z,4.80
2023-05-30T15:49:45.706Z,4.77
2023-05-30T15:52:48.865Z,4.70
2023-05-30T15:55:51.987Z,4.75
2023-05-30T15:58:56.316Z,4.18
2023-05-30T16:02:00.434Z,5.13
2023-05-30T16:05:04.274Z,4.67
2023-05-30T16:08:07.277Z,4.68
2023-05-30T16:11:10.350Z,4.53
2023-05-30T16:14:13.845Z,4.97
2023-05-30T16:17:17.003Z,5.50
2023-05-30T16:20:20.179Z,5.33
2023-05-30T16:23:23.250Z,5.40
2023-05-30T16:26:27.014Z,4.88
2023-05-30T16:29:31.112Z,4.68
2023-05-30T16:32:34.123Z,4.40
2023-05-30T16:35:37.135Z,4.97
2023-05-30T16:38:41.707Z,4.78
2023-05-30T16:41:44.735Z,4.82
2023-05-30T16:44:50.090Z,4.88
2023-05-30T16:47:53.170Z,5.30
2023-05-30T16:50:56.646Z,4.33
2023-05-30T16:54:00.293Z,4.95
2023-05-30T16:57:03.328Z,5.10
2023-05-30T17:00:10.431Z,4.60
2023-05-30T17:03:13.414Z,5.07
2023-05-30T17:06:16.965Z,5.33
2023-05-30T17:09:19.944Z,5.05
2023-05-30T17:12:22.951Z,4.95
2023-05-30T17:15:26.005Z,4.85
2023-05-30T17:18:28.985Z,4.70
2023-05-30T17:21:32.176Z,4.53
2023-05-30T17:24:35.206Z,4.60
2023-05-30T17:27:44.133Z,4.50
2023-05-30T17:30:47.137Z,4.32
2023-05-30T17:33:52.039Z,4.30
2023-05-30T17:36:55.086Z,4.30
2023-05-30T17:39:58.108Z,4.82
2023-05-30T17:43:01.146Z,4.95
2023-05-30T17:46:04.188Z,4.25
2023-05-30T17:49:08.372Z,4.53
2023-05-30T17:52:12.880Z,5.20
2023-05-30T17:55:15.954Z,4.97
2023-05-30T17:58:18.945Z,5.10
2023-05-30T18:01:22.007Z,5.15
2023-05-30T18:04:25.190Z,5.30
2023-05-30T18:07:28.192Z,5.03
2023-05-30T18:10:31.410Z,4.88
2023-05-30T18:13:42.801Z,5.20
2023-05-30T18:16:46.307Z,5.13
2023-05-30T18:19:49.489Z,4.97
2023-05-30T18:22:53.598Z,5.03
2023-05-30T18:25:56.599Z,5.20
2023-05-30T18:28:59.772Z,5.53
2023-05-30T18:32:03.976Z,5.53
2023-05-30T18:35:07.884Z,5.37
2023-05-30T18:38:10.886Z,5.13
2023-05-30T18:41:15.544Z,5.13
2023-05-30T18:44:18.946Z,5.45
2023-05-30T18:47:22.004Z,5.53
2023-05-30T18:50:24.996Z,5.30
2023-05-30T18:53:27.966Z,5.60
2023-05-30T18:56:32.057Z,5.63
2023-05-30T18:59:36.827Z,5.80
2023-05-30T19:02:41.446Z,6.07
2023-05-30T19:05:44.564Z,5.53
2023-05-30T19:08:49.077Z,6.50
2023-05-30T19:11:52.198Z,6.88
2023-05-30T19:14:55.219Z,5.82
2023-05-30T19:17:58.315Z,5.38
2023-05-30T19:21:04.428Z,5.60
2023-05-30T19:24:07.548Z,5.13
2023-05-30T19:27:10.590Z,5.00
2023-05-30T19:30:13.731Z,4.55
2023-05-30T19:33:16.774Z,5.57
2023-05-30T19:36:19.769Z,5.40
2023-05-30T19:39:22.712Z,4.73
2023-05-30T19:42:25.742Z,5.65
2023-05-30T19:45:29.133Z,5.32
2023-05-30T19:48:32.292Z,5.50
2023-05-30T19:51:36.542Z,5.93
2023-05-30T19:54:39.793Z,5.17
2023-05-30T19:57:42.845Z,5.50
2023-05-30T20:00:45.873Z,5.32
2023-05-30T20:03:49.265Z,5.72
2023-05-30T20:06:52.796Z,5.40
2023-05-30T20:09:56.914Z,5.33
2023-05-30T20:12:59.998Z,5.18
2023-05-30T20:16:03.043Z,5.45
2023-05-30T20:19:06.105Z,5.63
2023-05-30T20:22:09.109Z,5.67
2023-05-30T20:25:12.097Z,5.20
2023-05-30T20:28:18.383Z,5.50
2023-05-30T20:31:21.443Z,6.88
2023-05-30T20:34:24.647Z,6.95
2023-05-30T20:37:27.673Z,6.40
2023-05-30T20:40:30.671Z,6.33
2023-05-30T20:43:33.675Z,6.05
2023-05-30T20:46:36.863Z,5.30
2023-05-30T20:49:43.865Z,6.00
2023-05-30T20:52:46.998Z,5.60
2023-05-30T20:55:50.272Z,5.53
2023-05-30T20:58:53.371Z,5.43
2023-05-30T21:01:56.537Z,6.15
2023-05-30T21:05:00.819Z,5.78
2023-05-30T21:08:04.374Z,6.33
2023-05-30T21:11:07.411Z,6.07
2023-05-30T21:14:10.461Z,5.63
2023-05-30T21:17:13.462Z,5.95
2023-05-30T21:20:16.565Z,5.70
2023-05-30T21:23:19.621Z,5.63
2023-05-30T21:26:22.820Z,5.43
2023-05-30T21:29:25.838Z,5.22
2023-05-30T21:32:28.976Z,5.25
2023-05-30T21:35:32.169Z,5.57
2023-05-30T21:38:35.209Z,5.50
2023-05-30T21:41:38.232Z,5.60
2023-05-30T21:44:41.247Z,5.43
2023-05-30T21:47:44.428Z,5.10
2023-05-30T21:50:47.531Z,5.22
2023-05-30T21:53:50.521Z,5.23
2023-05-30T21:56:53.577Z,5.17
2023-05-30T21:59:56.661Z,5.63
2023-05-30T22:02:59.753Z,5.47
2023-05-30T22:06:02.818Z,5.00
2023-05-30T22:09:06.015Z,5.33
2023-05-30T22:12:09.268Z,5.47
2023-05-30T22:15:12.375Z,4.93
2023-05-30T22:18:15.411Z,5.45
2023-05-30T22:21:18.434Z,5.03
2023-05-30T22:24:21.434Z,5.63
2023-05-30T22:27:24.454Z,5.40
2023-05-30T22:30:27.489Z,5.30
2023-05-30T22:33:30.688Z,4.70
2023-05-30T22:36:33.892Z,5.57
2023-05-30T22:39:36.920Z,5.03
2023-05-30T22:42:39.951Z,5.33
2023-05-30T22:45:43.049Z,5.40
2023-05-30T22:48:46.088Z,5.22
2023-05-30T22:51:49.098Z,5.38
2023-05-30T22:54:52.102Z,4.83
2023-05-30T22:57:55.187Z,5.67
2023-05-30T23:00:58.229Z,4.90
2023-05-30T23:04:02.158Z,5.63
2023-05-30T23:07:05.457Z,4.95
2023-05-30T23:10:09.148Z,5.23
2023-05-30T23:13:13.234Z,5.03
2023-05-30T23:16:16.422Z,5.10
2023-05-30T23:19:19.446Z,5.47
2023-05-30T23:22:22.437Z,5.25
2023-05-30T23:25:25.627Z,5.57
2023-05-30T23:28:28.640Z,5.60
2023-05-30T23:31:31.668Z,4.63
2023-05-30T23:34:34.758Z,5.50
2023-05-30T23:37:37.826Z,5.50
2023-05-30T23:40:41.077Z,5.33
2023-05-30T23:43:44.381Z,5.20
2023-05-30T23:46:47.843Z,5.35
2023-05-30T23:49:50.921Z,5.10
2023-05-30T23:52:53.900Z,5.60
2023-05-30T23:55:56.858Z,5.13
2023-05-30T23:58:59.858Z,4.53
